DEP weather

Public forecast

Using degrees Celsius for public forecast. Weather courtesy of forecast.io.

Closest aviation weather report (METAR) to Daporijo Airport

Report is more than 2 hours old.

Closest report is Dibrugarh Airport, 51.8 nm (96.0 km) SE. Retrieved 2020/08/13 12:00 UTC (2 hours ago):

VEMN 131200Z 15003KT 3500 BR SCT018 FEW025CB BKN100 29/27 Q0998 NOSIG

Closest aviation forecast (TAF) to Daporijo Airport

Forecast is more than 12 hours old.

Closest forecast is Along Airport, 32.7 nm (60.6 km) ENE. Retrieved 2019/09/10 06:30 UTC (11 months ago):

TAF VEAN 100330Z 1006/1018 09008KT 6000 SCT020 SCT025 BKN090 TEMPO 1014/1018 3000 TSRA SCT025 FEW030CB BKN090